Terminal Aerodrome Forecast
Issued by NWS

Current Version | Previous Version | Graphics & Text | Print | Product List | Glossary On
Versions: 1 2 3 4 5 6 7 8 9 10 11 12 13 14 15 16
000
FTUS41 KPBZ 161120
TAFHLG
TAF
KHLG 161120Z 1612/1712 31008KT P6SM VCSH SCT025 OVC040
     FM161500 33012KT P6SM BKN035
     FM161900 32012KT P6SM SCT040
     FM170200 00000KT P6SM SKC=

USA.gov is the U.S. government's official web portal to all federal, state and local government web resources and services.